Time;durP1;ratioP1;P1;durP2;ratioP2;P2;SDS_P1;SDS_P2;PMS_P1;PMS_P2;Temp;Humidity;BMP_temperature;BMP_pressure;BME280_temperature;BME280_humidity;BME280_pressure;Samples;Min_cycle;Max_cycle;Signal;HPM_P1;HPM_P2
2023/04/18 00:00:06;;;;;;;11.20;6.67;;;;;;;;;;4996664;28;20228;-86
2023/04/18 00:02:35;;;;;;;8.33;6.67;;;;;;;;;;4994024;28;20235;-86
2023/04/18 00:05:04;;;;;;;7.70;6.60;;;;;;;;;;4994444;28;20255;-87
2023/04/18 00:07:31;;;;;;;8.80;7.03;;;;;;;;;;4996135;28;20256;-85
2023/04/18 00:09:58;;;;;;;9.63;6.00;;;;;;;;;;4994011;28;20278;-85
2023/04/18 00:12:26;;;;;;;8.40;6.50;;;;;;;;;;4994433;28;20235;-86
2023/04/18 00:14:53;;;;;;;9.93;6.33;;;;;;;;;;4993998;28;20208;-85
2023/04/18 00:17:21;;;;;;;8.57;6.30;;;;;;;;;;4993310;28;20263;-86
2023/04/18 00:19:48;;;;;;;7.87;6.27;;;;;;;;;;4993706;28;20343;-87
2023/04/18 00:22:21;;;;;;;8.97;6.40;;;;;;;;;;4992915;28;20224;-86
2023/04/18 00:24:48;;;;;;;8.97;6.83;;;;;;;;;;4994162;28;20598;-86
2023/04/18 00:27:15;;;;;;;7.17;6.47;;;;;;;;;;4997617;28;20315;-84
2023/04/18 00:29:43;;;;;;;8.00;6.13;;;;;;;;;;4993611;28;20219;-87
2023/04/18 00:32:11;;;;;;;7.40;6.37;;;;;;;;;;4993478;28;20278;-86
2023/04/18 00:34:39;;;;;;;9.93;6.77;;;;;;;;;;4993724;28;20216;-86
2023/04/18 00:37:06;;;;;;;6.73;5.93;;;;;;;;;;4992849;28;20266;-86
2023/04/18 00:39:34;;;;;;;7.83;6.30;;;;;;;;;;4993525;28;20232;-85
2023/04/18 00:42:01;;;;;;;6.30;5.70;;;;;;;;;;4992603;28;20232;-85
2023/04/18 00:44:28;;;;;;;9.37;6.40;;;;;;;;;;4993174;28;20204;-86
2023/04/18 00:46:57;;;;;;;7.77;6.47;;;;;;;;;;4993067;28;20748;-86
2023/04/18 00:49:24;;;;;;;9.80;6.80;;;;;;;;;;4993261;28;20738;-86
2023/04/18 00:51:52;;;;;;;13.87;7.30;;;;;;;;;;4992680;28;20609;-85
2023/04/18 00:54:19;;;;;;;9.90;6.93;;;;;;;;;;4993324;28;20214;-86
2023/04/18 00:56:46;;;;;;;9.87;6.43;;;;;;;;;;4993019;28;20234;-86
2023/04/18 00:59:14;;;;;;;10.60;7.90;;;;;;;;;;4993692;28;20316;-85
2023/04/18 01:01:42;;;;;;;10.20;7.10;;;;;;;;;;4997684;28;20239;-85
2023/04/18 01:04:10;;;;;;;8.60;6.93;;;;;;;;;;4985347;28;20630;-86
2023/04/18 01:06:37;;;;;;;13.23;7.70;;;;;;;;;;4993081;28;20236;-86
2023/04/18 01:09:05;;;;;;;7.43;6.63;;;;;;;;;;5003696;28;20239;-86
2023/04/18 01:11:32;;;;;;;7.60;6.80;;;;;;;;;;5004569;28;20236;-86
2023/04/18 01:14:08;;;;;;;7.13;6.37;;;;;;;;;;4997043;28;20598;-86
2023/04/18 01:16:35;;;;;;;10.73;6.97;;;;;;;;;;4996761;28;20235;-85
2023/04/18 01:19:03;;;;;;;10.17;6.90;;;;;;;;;;4997072;28;20676;-86
2023/04/18 01:21:32;;;;;;;7.77;6.13;;;;;;;;;;4996332;28;20282;-85
2023/04/18 01:24:01;;;;;;;6.70;5.90;;;;;;;;;;5000548;28;20269;-86
2023/04/18 01:26:30;;;;;;;7.60;5.73;;;;;;;;;;4996656;28;20232;-86
2023/04/18 01:28:57;;;;;;;7.83;6.57;;;;;;;;;;5003086;28;20231;-86
2023/04/18 01:31:24;;;;;;;10.43;7.03;;;;;;;;;;4996596;28;20243;-85
2023/04/18 01:33:51;;;;;;;13.47;6.93;;;;;;;;;;4997101;28;20196;-86
2023/04/18 01:36:18;;;;;;;7.93;7.00;;;;;;;;;;4996237;28;20240;-85
2023/04/18 01:38:45;;;;;;;8.97;7.07;;;;;;;;;;5000219;28;20196;-85
2023/04/18 01:41:12;;;;;;;9.93;6.50;;;;;;;;;;4996462;28;20246;-85
2023/04/18 01:43:40;;;;;;;7.33;6.20;;;;;;;;;;4996050;28;20933;-86
2023/04/18 01:46:07;;;;;;;7.60;6.30;;;;;;;;;;4995719;28;20606;-86
2023/04/18 01:48:34;;;;;;;7.47;6.53;;;;;;;;;;4996076;28;20200;-86
2023/04/18 01:51:02;;;;;;;7.00;6.30;;;;;;;;;;4995776;28;20240;-86
2023/04/18 01:53:29;;;;;;;12.37;6.70;;;;;;;;;;4996057;28;20197;-86
2023/04/18 01:55:57;;;;;;;7.37;5.77;;;;;;;;;;4995357;28;20258;-85
2023/04/18 01:58:24;;;;;;;6.63;5.97;;;;;;;;;;4995984;28;20196;-85
2023/04/18 02:00:56;;;;;;;7.67;6.13;;;;;;;;;;4996465;28;20327;-85
2023/04/18 02:03:23;;;;;;;13.57;7.10;;;;;;;;;;4994682;28;20212;-86
2023/04/18 02:05:50;;;;;;;9.53;6.73;;;;;;;;;;5002955;28;20238;-85
2023/04/18 02:08:17;;;;;;;7.67;6.60;;;;;;;;;;4995529;28;20211;-85
2023/04/18 02:10:44;;;;;;;7.40;6.23;;;;;;;;;;4996421;28;20280;-85
2023/04/18 02:13:11;;;;;;;8.37;6.47;;;;;;;;;;4982934;28;20208;-85
2023/04/18 02:15:38;;;;;;;7.67;6.53;;;;;;;;;;4994664;28;20243;-85
2023/04/18 02:18:08;;;;;;;8.50;6.57;;;;;;;;;;4997526;28;20204;-86
2023/04/18 02:20:35;;;;;;;7.87;6.97;;;;;;;;;;4994537;28;20363;-85
2023/04/18 02:23:02;;;;;;;8.70;6.80;;;;;;;;;;4995191;28;20231;-85
2023/04/18 02:25:30;;;;;;;7.83;6.17;;;;;;;;;;4994850;28;20232;-85
2023/04/18 02:27:57;;;;;;;7.60;5.97;;;;;;;;;;4995331;28;20204;-85
2023/04/18 02:30:25;;;;;;;8.93;6.63;;;;;;;;;;4994526;28;20238;-85
2023/04/18 02:32:52;;;;;;;8.20;6.33;;;;;;;;;;5001781;28;20700;-85
2023/04/18 02:35:20;;;;;;;11.87;6.67;;;;;;;;;;4994658;28;20207;-86
2023/04/18 02:37:48;;;;;;;8.63;6.67;;;;;;;;;;4994904;28;20208;-85
2023/04/18 02:40:15;;;;;;;7.27;6.07;;;;;;;;;;4994260;28;20232;-84
2023/04/18 02:42:42;;;;;;;6.73;6.00;;;;;;;;;;4994710;28;20224;-85
2023/04/18 02:45:10;;;;;;;11.17;6.53;;;;;;;;;;4995144;28;20286;-87
2023/04/18 02:47:37;;;;;;;8.93;7.23;;;;;;;;;;4995822;28;20199;-85
2023/04/18 02:50:04;;;;;;;10.63;7.20;;;;;;;;;;4994252;28;20737;-86
2023/04/18 02:52:32;;;;;;;7.77;6.77;;;;;;;;;;4996938;28;20306;-85
2023/04/18 02:55:00;;;;;;;9.53;7.20;;;;;;;;;;4995487;28;20215;-85
2023/04/18 02:57:27;;;;;;;8.50;7.37;;;;;;;;;;4994412;28;20234;-86
2023/04/18 02:59:54;;;;;;;8.00;6.63;;;;;;;;;;4994899;28;20223;-86
2023/04/18 03:02:21;;;;;;;8.17;6.83;;;;;;;;;;4997419;28;20246;-85
2023/04/18 03:04:48;;;;;;;8.80;6.93;;;;;;;;;;4995068;28;20303;-85
2023/04/18 03:07:15;;;;;;;12.60;7.13;;;;;;;;;;4994938;28;20752;-85
2023/04/18 03:09:43;;;;;;;8.50;6.03;;;;;;;;;;4994752;28;20224;-86
2023/04/18 03:12:10;;;;;;;11.80;6.73;;;;;;;;;;4994611;28;20239;-86
2023/04/18 03:14:37;;;;;;;7.47;6.57;;;;;;;;;;4995375;28;20210;-85
2023/04/18 03:17:05;;;;;;;9.00;7.07;;;;;;;;;;5000140;28;20245;-85
2023/04/18 03:19:32;;;;;;;10.03;7.17;;;;;;;;;;5022162;23;20248;-83
2023/04/18 03:21:59;;;;;;;13.00;7.50;;;;;;;;;;5029761;28;20252;-85
2023/04/18 03:24:26;;;;;;;9.83;7.20;;;;;;;;;;5031483;28;20240;-84
2023/04/18 03:26:55;;;;;;;10.07;7.63;;;;;;;;;;5031610;28;20241;-84
2023/04/18 03:29:22;;;;;;;8.60;7.20;;;;;;;;;;5032343;28;20256;-84
2023/04/18 03:31:49;;;;;;;8.37;7.07;;;;;;;;;;5025785;28;20750;-84
2023/04/18 03:34:16;;;;;;;8.33;6.97;;;;;;;;;;5021223;28;20232;-84
2023/04/18 03:36:43;;;;;;;8.77;6.67;;;;;;;;;;5031229;28;20243;-84
2023/04/18 03:39:10;;;;;;;11.53;7.80;;;;;;;;;;5027565;28;20219;-84
2023/04/18 03:41:37;;;;;;;9.70;7.83;;;;;;;;;;5029456;28;20229;-84
2023/04/18 03:44:06;;;;;;;10.70;7.90;;;;;;;;;;5025495;28;20230;-84
2023/04/18 03:46:33;;;;;;;9.73;7.20;;;;;;;;;;5020680;28;20242;-84
2023/04/18 03:49:00;;;;;;;13.30;8.03;;;;;;;;;;5031795;28;20213;-84
2023/04/18 03:51:27;;;;;;;11.60;7.83;;;;;;;;;;5031079;28;20265;-84
2023/04/18 03:53:54;;;;;;;8.27;7.10;;;;;;;;;;5028747;28;20215;-84
2023/04/18 03:56:22;;;;;;;10.17;7.93;;;;;;;;;;5027516;28;20232;-84
2023/04/18 03:58:49;;;;;;;11.83;7.53;;;;;;;;;;5031878;28;20266;-84
2023/04/18 04:01:17;;;;;;;8.97;7.80;;;;;;;;;;5029864;28;20257;-84
2023/04/18 04:03:44;;;;;;;10.90;8.13;;;;;;;;;;5026105;28;20244;-85
2023/04/18 04:06:11;;;;;;;9.43;7.70;;;;;;;;;;5031251;28;20230;-84
2023/04/18 04:08:38;;;;;;;8.50;7.40;;;;;;;;;;5023309;28;20248;-85
2023/04/18 04:11:05;;;;;;;8.70;7.73;;;;;;;;;;5031183;28;20237;-85
2023/04/18 04:13:32;;;;;;;8.73;7.83;;;;;;;;;;5022779;28;20216;-85
2023/04/18 04:15:59;;;;;;;10.53;7.83;;;;;;;;;;5019984;28;20241;-84
2023/04/18 04:18:29;;;;;;;9.80;8.07;;;;;;;;;;5029173;28;20218;-84
2023/04/18 04:20:57;;;;;;;8.53;7.27;;;;;;;;;;5030594;28;20235;-84
2023/04/18 04:23:25;;;;;;;10.33;7.93;;;;;;;;;;5031329;28;20233;-84
2023/04/18 04:25:52;;;;;;;10.03;7.87;;;;;;;;;;5030947;28;20241;-82
2023/04/18 04:28:21;;;;;;;11.03;7.90;;;;;;;;;;5031519;28;20604;-82
2023/04/18 04:30:49;;;;;;;8.57;7.50;;;;;;;;;;5030467;28;20819;-83
2023/04/18 04:33:16;;;;;;;13.50;8.37;;;;;;;;;;5031565;28;20292;-82
2023/04/18 04:35:45;;;;;;;10.97;7.87;;;;;;;;;;5030413;28;20242;-83
2023/04/18 04:38:13;;;;;;;10.87;7.77;;;;;;;;;;5022917;28;20216;-82
2023/04/18 04:40:40;;;;;;;13.97;8.67;;;;;;;;;;5031064;28;20320;-84
2023/04/18 04:43:11;;;;;;;9.40;8.33;;;;;;;;;;5032474;28;20291;-83
2023/04/18 04:45:40;;;;;;;12.37;8.57;;;;;;;;;;5028902;28;20689;-82
2023/04/18 04:48:07;;;;;;;9.83;8.70;;;;;;;;;;5024719;28;20212;-82
2023/04/18 04:50:36;;;;;;;11.43;8.60;;;;;;;;;;5029439;28;20238;-82
2023/04/18 04:53:05;;;;;;;11.47;8.67;;;;;;;;;;5035735;28;20715;-83
2023/04/18 04:55:32;;;;;;;11.70;8.63;;;;;;;;;;5035440;28;20298;-82
2023/04/18 04:57:59;;;;;;;13.57;9.90;;;;;;;;;;5036018;28;20373;-82
2023/04/18 05:00:27;;;;;;;11.77;9.53;;;;;;;;;;5035911;28;20234;-82
2023/04/18 05:02:55;;;;;;;12.60;8.97;;;;;;;;;;5027143;28;20215;-83
2023/04/18 05:05:23;;;;;;;15.13;10.13;;;;;;;;;;5034754;28;20687;-82
2023/04/18 05:07:50;;;;;;;13.77;9.97;;;;;;;;;;5036255;28;20211;-82
2023/04/18 05:10:18;;;;;;;15.40;10.10;;;;;;;;;;5035892;28;20639;-81
2023/04/18 05:12:45;;;;;;;12.73;10.03;;;;;;;;;;5034611;28;20213;-82
2023/04/18 05:15:12;;;;;;;12.87;10.70;;;;;;;;;;5034238;28;20205;-83
2023/04/18 05:17:39;;;;;;;14.13;10.47;;;;;;;;;;5034053;28;20554;-82
2023/04/18 05:20:07;;;;;;;13.03;11.13;;;;;;;;;;5034019;28;20245;-82
2023/04/18 05:22:34;;;;;;;17.13;11.37;;;;;;;;;;5033712;28;20287;-82
2023/04/18 05:25:01;;;;;;;16.00;11.53;;;;;;;;;;5034167;28;20233;-82
2023/04/18 05:27:29;;;;;;;19.63;12.90;;;;;;;;;;5033751;28;20233;-82
2023/04/18 05:32:40;;;;;;;20.33;13.80;;;;;;;;;;5033779;28;20240;-81
2023/04/18 05:35:07;;;;;;;18.97;14.50;;;;;;;;;;5034114;28;20615;-82
2023/04/18 05:37:35;;;;;;;23.77;14.47;;;;;;;;;;5033931;28;20234;-82
2023/04/18 05:40:02;;;;;;;22.23;14.47;;;;;;;;;;5033678;28;20712;-82
2023/04/18 05:42:31;;;;;;;21.13;14.20;;;;;;;;;;5033597;28;20284;-82
2023/04/18 05:44:58;;;;;;;21.20;14.97;;;;;;;;;;5033891;28;20246;-83
2023/04/18 05:47:27;;;;;;;21.03;14.40;;;;;;;;;;5033592;28;20233;-82
2023/04/18 05:49:54;;;;;;;22.90;14.40;;;;;;;;;;5030569;28;20322;-83
2023/04/18 05:52:21;;;;;;;22.47;15.30;;;;;;;;;;5020568;28;20234;-82
2023/04/18 05:54:48;;;;;;;19.87;14.63;;;;;;;;;;5033835;28;20304;-84
2023/04/18 05:57:15;;;;;;;24.80;15.03;;;;;;;;;;5032953;28;20237;-83
2023/04/18 05:59:44;;;;;;;25.23;15.67;;;;;;;;;;5033372;28;20237;-84
2023/04/18 06:05:14;;;;;;;21.73;15.93;;;;;;;;;;5027432;28;20567;-82
2023/04/18 06:07:42;;;;;;;24.47;15.47;;;;;;;;;;5033232;28;20586;-83
2023/04/18 06:10:12;;;;;;;22.27;15.53;;;;;;;;;;5033350;28;20644;-82
2023/04/18 06:12:39;;;;;;;18.27;13.43;;;;;;;;;;5034364;28;20203;-82
2023/04/18 06:15:08;;;;;;;18.23;13.33;;;;;;;;;;5034194;28;20209;-83
2023/04/18 06:17:35;;;;;;;18.37;13.67;;;;;;;;;;5033025;28;20230;-83
2023/04/18 06:20:04;;;;;;;20.33;13.53;;;;;;;;;;5032864;28;20234;-84
2023/04/18 06:22:31;;;;;;;17.63;13.60;;;;;;;;;;5020637;28;20284;-84
2023/04/18 06:24:58;;;;;;;19.23;13.10;;;;;;;;;;5030657;28;20221;-84
2023/04/18 06:27:26;;;;;;;19.00;13.50;;;;;;;;;;5024382;28;20231;-83
2023/04/18 06:29:53;;;;;;;17.20;12.43;;;;;;;;;;5013622;28;20308;-84
2023/04/18 06:32:21;;;;;;;16.67;12.53;;;;;;;;;;5017978;28;20230;-83
2023/04/18 06:34:49;;;;;;;16.50;11.67;;;;;;;;;;5029387;28;20209;-83
2023/04/18 06:37:16;;;;;;;15.03;11.00;;;;;;;;;;5017367;28;20237;-83
2023/04/18 06:39:43;;;;;;;13.17;11.00;;;;;;;;;;5021649;28;20207;-83
2023/04/18 06:42:10;;;;;;;14.83;11.70;;;;;;;;;;5019461;28;20717;-83
2023/04/18 06:44:37;;;;;;;13.97;11.47;;;;;;;;;;5024192;28;20234;-83
2023/04/18 06:47:04;;;;;;;16.67;12.47;;;;;;;;;;5023345;28;20249;-83
2023/04/18 06:49:33;;;;;;;14.33;11.73;;;;;;;;;;5015598;28;20214;-83
2023/04/18 06:52:00;;;;;;;16.27;11.63;;;;;;;;;;5011006;28;20232;-83
2023/04/18 06:54:27;;;;;;;16.90;12.80;;;;;;;;;;5026985;28;20695;-83
2023/04/18 06:56:54;;;;;;;13.57;10.97;;;;;;;;;;5022811;28;20325;-84
2023/04/18 06:59:22;;;;;;;13.47;10.60;;;;;;;;;;5031465;28;20210;-83
2023/04/18 07:01:49;;;;;;;14.90;10.47;;;;;;;;;;5020504;28;20257;-84
2023/04/18 07:04:16;;;;;;;19.00;10.67;;;;;;;;;;5025031;28;20227;-84
2023/04/18 07:06:45;;;;;;;17.13;11.47;;;;;;;;;;5024097;28;20238;-83
2023/04/18 07:09:12;;;;;;;15.47;12.03;;;;;;;;;;5011131;28;20218;-83
2023/04/18 07:11:39;;;;;;;15.33;11.67;;;;;;;;;;5019486;28;20654;-83
2023/04/18 07:14:06;;;;;;;15.37;11.27;;;;;;;;;;5019483;28;20601;-83
2023/04/18 07:16:33;;;;;;;16.43;12.10;;;;;;;;;;5013490;28;20602;-84
2023/04/18 07:19:00;;;;;;;18.00;12.20;;;;;;;;;;5031340;28;20211;-83
2023/04/18 07:21:27;;;;;;;15.90;11.37;;;;;;;;;;5015534;28;20234;-84
2023/04/18 07:23:55;;;;;;;15.73;12.27;;;;;;;;;;5021743;28;20218;-84
2023/04/18 07:26:23;;;;;;;14.87;10.70;;;;;;;;;;5016588;28;20228;-84
2023/04/18 07:28:50;;;;;;;16.93;11.67;;;;;;;;;;5033231;28;20207;-83
2023/04/18 07:31:18;;;;;;;16.07;12.10;;;;;;;;;;5024063;28;20226;-84
2023/04/18 07:33:45;;;;;;;12.63;10.07;;;;;;;;;;5025116;28;20207;-83
2023/04/18 07:36:12;;;;;;;17.33;11.90;;;;;;;;;;5025068;28;20229;-84
2023/04/18 07:38:40;;;;;;;15.03;11.53;;;;;;;;;;5023727;28;20211;-83
2023/04/18 07:41:08;;;;;;;15.73;11.20;;;;;;;;;;5018659;28;20646;-83
2023/04/18 07:43:37;;;;;;;16.27;12.47;;;;;;;;;;5011633;28;20207;-83
2023/04/18 07:46:04;;;;;;;14.83;11.37;;;;;;;;;;5010651;28;20246;-84
2023/04/18 07:48:32;;;;;;;15.13;11.27;;;;;;;;;;5026645;28;20692;-84
2023/04/18 07:50:59;;;;;;;16.07;11.50;;;;;;;;;;5018722;28;20812;-85
2023/04/18 07:53:26;;;;;;;15.30;10.97;;;;;;;;;;5019014;28;20566;-84
2023/04/18 07:55:54;;;;;;;15.03;11.13;;;;;;;;;;5026568;28;20735;-84
2023/04/18 07:58:22;;;;;;;14.73;11.13;;;;;;;;;;5018950;28;20203;-83
2023/04/18 08:00:49;;;;;;;13.70;11.10;;;;;;;;;;5009692;28;20297;-84
2023/04/18 08:03:16;;;;;;;15.93;11.47;;;;;;;;;;5016268;28;20203;-84
2023/04/18 08:05:43;;;;;;;14.10;10.83;;;;;;;;;;5012634;28;20231;-84
2023/04/18 08:08:11;;;;;;;14.37;10.97;;;;;;;;;;5021639;28;20214;-85
2023/04/18 08:10:38;;;;;;;12.00;10.30;;;;;;;;;;5021845;28;20728;-84
2023/04/18 08:13:05;;;;;;;15.33;9.40;;;;;;;;;;5018995;28;20209;-84
2023/04/18 08:15:34;;;;;;;17.17;10.97;;;;;;;;;;5025525;28;20317;-84
2023/04/18 08:18:01;;;;;;;15.50;10.90;;;;;;;;;;5024220;28;20591;-84
2023/04/18 08:20:28;;;;;;;16.07;11.50;;;;;;;;;;5009987;28;20300;-83
2023/04/18 08:22:55;;;;;;;14.40;10.47;;;;;;;;;;5011566;28;20219;-83
2023/04/18 08:25:22;;;;;;;12.40;9.97;;;;;;;;;;5029503;28;20223;-85
2023/04/18 08:27:49;;;;;;;14.03;10.27;;;;;;;;;;5030358;28;20218;-82
2023/04/18 08:30:16;;;;;;;13.67;10.50;;;;;;;;;;5021293;28;20234;-84
2023/04/18 08:32:45;;;;;;;17.60;10.73;;;;;;;;;;5022119;28;20210;-83
2023/04/18 08:35:12;;;;;;;13.10;10.07;;;;;;;;;;5025070;28;20577;-84
2023/04/18 08:37:39;;;;;;;14.20;10.43;;;;;;;;;;5026886;28;20207;-83
2023/04/18 08:40:07;;;;;;;12.10;9.60;;;;;;;;;;5021853;28;20230;-83
2023/04/18 08:42:34;;;;;;;13.00;9.77;;;;;;;;;;5020963;28;20258;-84
2023/04/18 08:45:01;;;;;;;11.93;8.43;;;;;;;;;;5029756;28;20237;-83
2023/04/18 08:47:29;;;;;;;10.47;8.77;;;;;;;;;;5029515;28;20238;-83
2023/04/18 08:49:58;;;;;;;13.03;9.33;;;;;;;;;;5013614;28;20237;-84
2023/04/18 08:52:27;;;;;;;11.53;8.97;;;;;;;;;;5029205;28;20226;-84
2023/04/18 08:54:55;;;;;;;12.50;9.60;;;;;;;;;;5029594;28;20215;-84
2023/04/18 08:57:25;;;;;;;11.87;8.87;;;;;;;;;;5021365;28;20299;-83
2023/04/18 08:59:54;;;;;;;10.30;8.37;;;;;;;;;;5029687;28;20676;-84
2023/04/18 09:02:22;;;;;;;11.33;8.93;;;;;;;;;;5029123;28;20704;-84
2023/04/18 09:04:51;;;;;;;10.63;8.70;;;;;;;;;;5021258;28;20254;-84
2023/04/18 09:07:20;;;;;;;12.67;9.07;;;;;;;;;;5029431;28;20226;-83
2023/04/18 09:09:47;;;;;;;10.53;8.37;;;;;;;;;;5029765;28;20639;-84
2023/04/18 09:12:17;;;;;;;10.50;8.73;;;;;;;;;;5016583;28;20772;-85
2023/04/18 09:14:45;;;;;;;11.10;8.27;;;;;;;;;;5017943;28;20733;-83
2023/04/18 09:17:13;;;;;;;9.87;7.93;;;;;;;;;;5022659;28;20257;-83
2023/04/18 09:19:49;;;;;;;8.47;7.47;;;;;;;;;;5025314;28;20672;-84
2023/04/18 09:22:16;;;;;;;10.50;7.97;;;;;;;;;;5016908;28;20301;-84
2023/04/18 09:24:52;;;;;;;9.83;8.47;;;;;;;;;;5046640;23;20274;-89
2023/04/18 09:27:21;;;;;;;9.13;7.80;;;;;;;;;;5034809;28;20226;-89
2023/04/18 09:29:48;;;;;;;9.63;7.67;;;;;;;;;;5020365;28;20608;-88
2023/04/18 09:32:23;;;;;;;8.70;6.83;;;;;;;;;;5016985;28;20234;-89
2023/04/18 09:34:53;;;;;;;8.63;7.00;;;;;;;;;;5027030;28;20242;-90
2023/04/18 09:37:21;;;;;;;8.77;7.50;;;;;;;;;;5036512;28;20230;-89
2023/04/18 09:39:50;;;;;;;8.77;7.63;;;;;;;;;;5035884;28;20245;-89
2023/04/18 09:42:17;;;;;;;10.47;6.83;;;;;;;;;;5024644;28;20251;-89
2023/04/18 09:44:59;;;;;;;8.27;6.90;;;;;;;;;;5029627;28;20234;-89
2023/04/18 09:47:26;;;;;;;8.30;7.13;;;;;;;;;;5033092;28;20231;-89
2023/04/18 09:49:55;;;;;;;8.17;7.37;;;;;;;;;;5027075;28;20211;-89
2023/04/18 09:52:23;;;;;;;8.57;7.53;;;;;;;;;;5030106;28;20280;-89
2023/04/18 09:54:57;;;;;;;9.83;7.00;;;;;;;;;;5031482;28;20681;-88
2023/04/18 09:57:27;;;;;;;7.90;7.07;;;;;;;;;;5035170;28;20242;-89
2023/04/18 09:59:59;;;;;;;7.73;6.87;;;;;;;;;;5036150;28;20214;-89
2023/04/18 10:02:27;;;;;;;8.70;6.97;;;;;;;;;;5029156;28;20233;-89
2023/04/18 10:04:54;;;;;;;6.93;6.27;;;;;;;;;;5040267;28;20230;-89
2023/04/18 10:07:22;;;;;;;9.17;6.87;;;;;;;;;;5034447;28;20235;-89
2023/04/18 10:09:49;;;;;;;7.77;6.47;;;;;;;;;;5039678;28;20233;-88
2023/04/18 10:12:18;;;;;;;8.03;6.63;;;;;;;;;;5043524;28;20234;-89
2023/04/18 10:14:46;;;;;;;7.03;6.00;;;;;;;;;;5027273;28;20241;-89
2023/04/18 10:17:14;;;;;;;7.03;6.33;;;;;;;;;;5027303;28;20732;-86
2023/04/18 10:19:43;;;;;;;11.33;6.07;;;;;;;;;;5038507;28;20203;-86
2023/04/18 10:22:10;;;;;;;6.37;5.70;;;;;;;;;;5025606;28;20261;-86
2023/04/18 10:24:48;;;;;;;8.33;6.43;;;;;;;;;;5034288;28;20238;-86
2023/04/18 10:27:15;;;;;;;8.13;6.30;;;;;;;;;;5026781;28;20252;-87
2023/04/18 10:29:51;;;;;;;6.57;5.43;;;;;;;;;;5026143;28;20207;-86
2023/04/18 10:32:18;;;;;;;6.80;6.10;;;;;;;;;;5034091;28;20230;-87
2023/04/18 10:34:47;;;;;;;6.50;5.80;;;;;;;;;;5034320;28;20262;-87
2023/04/18 10:37:16;;;;;;;7.00;5.70;;;;;;;;;;5022365;28;20250;-87
2023/04/18 10:39:50;;;;;;;6.90;6.20;;;;;;;;;;5014225;28;20619;-86
2023/04/18 10:42:17;;;;;;;6.10;5.50;;;;;;;;;;5025123;28;20237;-86
2023/04/18 10:44:44;;;;;;;6.63;5.50;;;;;;;;;;5025267;28;20250;-86
2023/04/18 10:47:20;;;;;;;5.13;4.63;;;;;;;;;;5024619;28;20774;-86
2023/04/18 10:49:59;;;;;;;5.50;4.90;;;;;;;;;;5025558;28;20681;-86
2023/04/18 10:52:27;;;;;;;5.20;4.53;;;;;;;;;;5026791;28;20226;-86
2023/04/18 10:54:56;;;;;;;5.83;5.17;;;;;;;;;;5024305;28;20234;-85
2023/04/18 10:57:23;;;;;;;5.47;4.97;;;;;;;;;;5025661;28;20229;-85
2023/04/18 10:59:50;;;;;;;4.93;4.43;;;;;;;;;;5024774;28;20199;-86
2023/04/18 11:02:28;;;;;;;4.80;4.33;;;;;;;;;;5025238;28;20570;-86
2023/04/18 11:04:56;;;;;;;4.50;4.10;;;;;;;;;;5032837;28;20245;-86
2023/04/18 11:07:32;;;;;;;5.07;4.57;;;;;;;;;;5033049;28;20229;-85
2023/04/18 11:09:59;;;;;;;8.70;4.10;;;;;;;;;;5024243;28;20715;-86
2023/04/18 11:12:30;;;;;;;4.70;4.20;;;;;;;;;;5032523;28;20696;-86
2023/04/18 11:14:57;;;;;;;4.50;4.10;;;;;;;;;;5017100;28;20258;-85
2023/04/18 11:17:26;;;;;;;5.10;4.28;;;;;;;;;;5032833;28;20302;-86
2023/04/18 11:20:00;;;;;;;4.40;4.00;;;;;;;;;;5035689;28;20211;-85
2023/04/18 11:22:27;;;;;;;4.95;3.88;;;;;;;;;;5027083;28;20239;-86
2023/04/18 11:24:58;;;;;;;4.47;4.07;;;;;;;;;;5023028;28;20246;-85
2023/04/18 11:27:26;;;;;;;5.07;3.63;;;;;;;;;;5027244;28;20284;-85
2023/04/18 11:29:53;;;;;;;3.67;3.38;;;;;;;;;;5032932;28;20215;-87
2023/04/18 11:32:22;;;;;;;4.53;4.03;;;;;;;;;;5024174;28;20227;-87
2023/04/18 11:34:53;;;;;;;4.28;3.88;;;;;;;;;;5032389;28;20229;-86
2023/04/18 11:37:20;;;;;;;3.80;3.42;;;;;;;;;;5024324;28;20265;-87
2023/04/18 11:39:47;;;;;;;4.20;3.83;;;;;;;;;;5032509;28;20203;-87
2023/04/18 11:42:14;;;;;;;6.47;4.22;;;;;;;;;;5023232;28;20709;-86
2023/04/18 11:44:45;;;;;;;3.75;3.45;;;;;;;;;;5032082;28;20258;-87
2023/04/18 11:47:25;;;;;;;3.65;3.35;;;;;;;;;;5020497;28;20235;-88
2023/04/18 11:49:57;;;;;;;4.22;3.83;;;;;;;;;;5028323;28;20237;-86
2023/04/18 11:52:24;;;;;;;4.00;3.70;;;;;;;;;;5018934;28;20226;-87
2023/04/18 11:54:51;;;;;;;3.95;3.33;;;;;;;;;;5014306;28;20322;-85
2023/04/18 11:57:19;;;;;;;6.70;3.65;;;;;;;;;;5021550;28;20284;-86
2023/04/18 11:59:53;;;;;;;3.47;3.17;;;;;;;;;;5031510;28;20209;-86
2023/04/18 12:02:21;;;;;;;3.67;3.38;;;;;;;;;;5031596;28;20230;-86
2023/04/18 12:04:52;;;;;;;3.60;3.30;;;;;;;;;;5031779;28;20238;-86
2023/04/18 12:07:40;;;;;;;3.60;3.30;;;;;;;;;;5015464;28;20238;-86
2023/04/18 12:10:08;;;;;;;3.70;3.40;;;;;;;;;;5016750;28;20254;-86
2023/04/18 12:12:37;;;;;;;3.47;3.17;;;;;;;;;;5018912;28;20223;-86
2023/04/18 12:15:08;;;;;;;3.63;3.33;;;;;;;;;;5014211;28;20678;-85
2023/04/18 12:17:37;;;;;;;3.60;3.30;;;;;;;;;;5015942;28;20694;-86
2023/04/18 12:20:08;;;;;;;3.55;3.25;;;;;;;;;;5039572;28;20245;-87
2023/04/18 12:22:44;;;;;;;3.38;3.10;;;;;;;;;;5011576;28;20302;-84
2023/04/18 12:25:18;;;;;;;3.60;3.30;;;;;;;;;;5010389;28;20214;-86
2023/04/18 12:27:53;;;;;;;3.72;3.42;;;;;;;;;;5019292;28;20198;-86
2023/04/18 12:30:21;;;;;;;3.47;3.17;;;;;;;;;;5002923;28;20676;-86
2023/04/18 12:32:53;;;;;;;3.42;3.13;;;;;;;;;;4996257;28;20214;-86
2023/04/18 12:35:20;;;;;;;3.55;3.25;;;;;;;;;;4999812;28;20215;-85
2023/04/18 12:37:49;;;;;;;3.45;3.15;;;;;;;;;;5011697;28;20203;-86
2023/04/18 12:40:17;;;;;;;3.55;3.25;;;;;;;;;;5010684;28;20889;-85
2023/04/18 12:42:45;;;;;;;3.92;3.38;;;;;;;;;;5004712;28;20290;-85
2023/04/18 12:45:12;;;;;;;4.13;3.33;;;;;;;;;;4993940;28;20212;-84
2023/04/18 12:47:40;;;;;;;3.92;3.63;;;;;;;;;;5002434;28;20598;-85
2023/04/18 12:50:09;;;;;;;3.22;3.03;;;;;;;;;;5004520;28;20588;-84
2023/04/18 12:52:38;;;;;;;3.55;3.25;;;;;;;;;;5030738;28;20628;-82
2023/04/18 12:55:07;;;;;;;4.55;3.35;;;;;;;;;;5024448;28;20219;-81
2023/04/18 12:57:34;;;;;;;4.03;3.65;;;;;;;;;;5015937;28;20219;-82
2023/04/18 13:00:04;;;;;;;4.05;3.63;;;;;;;;;;5010380;28;20211;-81
2023/04/18 13:02:35;;;;;;;3.85;3.55;;;;;;;;;;5010457;28;20717;-82
2023/04/18 13:05:02;;;;;;;3.72;3.42;;;;;;;;;;5010671;28;20204;-83
2023/04/18 13:07:30;;;;;;;4.47;3.92;;;;;;;;;;5013502;28;20250;-84
2023/04/18 13:09:57;;;;;;;4.05;3.67;;;;;;;;;;5014368;28;20207;-85
2023/04/18 13:12:25;;;;;;;4.00;3.50;;;;;;;;;;5014287;28;20720;-86
2023/04/18 13:14:52;;;;;;;4.65;4.13;;;;;;;;;;5023476;28;20223;-86
2023/04/18 13:17:19;;;;;;;4.40;4.00;;;;;;;;;;5018884;28;20230;-86
2023/04/18 13:19:46;;;;;;;3.88;3.58;;;;;;;;;;5015415;28;20711;-86
2023/04/18 13:22:13;;;;;;;4.05;3.75;;;;;;;;;;5015487;28;20235;-86
2023/04/18 13:24:40;;;;;;;3.72;3.42;;;;;;;;;;5015505;28;20665;-87
2023/04/18 13:27:10;;;;;;;4.00;3.60;;;;;;;;;;5015767;28;20743;-88
2023/04/18 13:29:39;;;;;;;4.28;3.85;;;;;;;;;;5021025;28;20670;-86
2023/04/18 13:32:06;;;;;;;3.88;3.58;;;;;;;;;;5015834;28;20244;-88
2023/04/18 13:34:35;;;;;;;3.75;3.42;;;;;;;;;;5021468;28;20696;-86
2023/04/18 13:37:02;;;;;;;4.53;4.07;;;;;;;;;;5016673;28;20223;-87
2023/04/18 13:39:29;;;;;;;5.38;3.83;;;;;;;;;;5011007;28;20212;-85
2023/04/18 13:41:56;;;;;;;4.07;3.70;;;;;;;;;;5021808;28;20602;-85
2023/04/18 13:44:24;;;;;;;3.80;3.50;;;;;;;;;;5022534;28;20285;-86
2023/04/18 13:46:53;;;;;;;4.38;3.97;;;;;;;;;;5015281;28;20235;-86
2023/04/18 13:49:20;;;;;;;4.55;4.10;;;;;;;;;;5013954;28;20273;-86
2023/04/18 13:51:48;;;;;;;4.60;4.20;;;;;;;;;;5013548;28;20235;-86
2023/04/18 13:54:15;;;;;;;4.70;3.85;;;;;;;;;;5014017;28;20230;-85
2023/04/18 13:56:43;;;;;;;5.00;4.53;;;;;;;;;;5014526;28;20235;-86
2023/04/18 13:59:10;;;;;;;4.10;3.70;;;;;;;;;;5013210;28;20203;-86
2023/04/18 14:01:37;;;;;;;4.32;3.92;;;;;;;;;;5013385;28;20231;-86
2023/04/18 14:04:05;;;;;;;5.13;4.28;;;;;;;;;;5014141;28;20231;-86
2023/04/18 14:06:32;;;;;;;4.32;3.92;;;;;;;;;;5013368;28;20223;-86
2023/04/18 14:08:59;;;;;;;4.43;4.00;;;;;;;;;;5013731;28;20210;-86
2023/04/18 14:11:26;;;;;;;4.20;3.80;;;;;;;;;;5012843;28;20231;-86
2023/04/18 14:13:53;;;;;;;4.35;3.95;;;;;;;;;;5013833;28;20227;-86
2023/04/18 14:16:20;;;;;;;4.40;4.05;;;;;;;;;;5014738;28;20234;-85
2023/04/18 14:18:48;;;;;;;5.63;4.40;;;;;;;;;;5018008;28;20283;-85
2023/04/18 14:21:16;;;;;;;3.90;3.60;;;;;;;;;;5012859;28;20250;-86
2023/04/18 14:23:43;;;;;;;4.43;4.05;;;;;;;;;;5020333;28;20236;-85
2023/04/18 14:26:10;;;;;;;4.65;4.20;;;;;;;;;;5016266;28;20243;-86
2023/04/18 14:28:37;;;;;;;4.47;4.07;;;;;;;;;;5020479;28;20211;-86
2023/04/18 14:31:05;;;;;;;5.15;4.65;;;;;;;;;;5012351;28;20234;-86
2023/04/18 14:33:33;;;;;;;4.50;3.92;;;;;;;;;;5006256;28;20480;-86
2023/04/18 14:36:00;;;;;;;5.63;3.95;;;;;;;;;;4996411;28;20240;-86
2023/04/18 14:38:29;;;;;;;4.20;3.80;;;;;;;;;;5002243;28;20212;-86
2023/04/18 14:40:56;;;;;;;4.68;4.28;;;;;;;;;;5001519;28;20240;-86
2023/04/18 14:43:23;;;;;;;5.03;4.53;;;;;;;;;;5012928;28;20234;-85
2023/04/18 14:45:50;;;;;;;4.25;3.85;;;;;;;;;;4999378;28;20274;-86